< < Back
Terminal Aerodrome Forecast


Current Version              Previous Versions:   1  2  3  4  5  6  7  8  9  

Terminal Aerodrome Forecast

950
FTUS42 KTAE 101720
TAFDHN
TAF
KDHN 101720Z 1018/1118 29010G15KT P6SM SKC
     FM102300 25005KT P6SM SKC
     FM111600 22010KT P6SM SKC=



Latest METAR

794
SAUS70 KWBC 112100 RRE
MTRDHN
METAR KDHN 112053Z AUTO 21013KT 10SM CLR 22/07 A3012 RMK AO2 SLP197
T02170067 56025


USA.gov is the U.S. government's official web portal to all federal, state and local government web resources and services.